Aeroporto :
LOGIN :

Iscrizione | Disclaimer

   EN    FR    IT 

 










Sommario :    VFR   VFR Marginale   IFR   IFR Intensivo   IFR Molto Intensivo
Visibilità : 
Base nubi : 
>= 8 km
>= 3000ft
5 / 8 km
1000 / 3000 ft
1500m / 5 km
500 / 1000 ft
800 / 1500m
200 / 500 ft
< 800m
< 200 ft
Simboli :   Temporali  Nebbia  Neve Forte  Precipitazioni Forti  Vento > 20 kt
SIGMETs :   Varie  Temporali  Ghiacco  Turbolenza  Onda orograficha  Ceneri Vulcaniche






- Altitudine del aeroporto : 188 ft
- Codice IATA : ORB


ESOE - Örebro

ULTIMO METAR :
  • 071920Z 21010KT 9999 FEW040 13/05 Q1003

METARs OBSOLETI :
  • 071850Z 21010KT CAVOK 14/05 Q1003
  • 071820Z 23009KT CAVOK 15/04 Q1003
  • 071750Z 23013KT CAVOK 16/03 Q1003
  • 071720Z 23013KT 190V250 9999 FEW047 16/04 Q1003
  • 071650Z 24014KT 190V270 CAVOK 17/04 Q1003

TAF TAF ESOE
Valido dal 07 a 18 ore il 07 a 21 ore UTC


071730Z 0718/0721 23012G23KT 9999 SCT050CB



MetMap, La meteo Aeronautica in un colpo d'occhio ! - Copyright ORBIFLY Dicembre 2007 - Disclaimer

ORBIFLY MET'MAP TEAM :

Programmazione e sviluppo : Alexandra Zaïnal
Concezione : Baudouin d'Aumeries
Aiuto per la programmazione : Marc-Olivier Méhu
Supporto tecnico e logistico : Manuel Goepfert
Aiuto per la traduzione : Arnaldo La Scala

Contatto : metmap@orbifly.com




FONTI E CREDITI :

   NOAA